sensor_id;sensor_type;location;lat;lon;timestamp;P1;durP1;ratioP1;P2;durP2;ratioP2
70052;SDS011;57398;52.032;4.376;2022-10-16T00:00:35;3.10;;;1.20;;
70052;SDS011;57398;52.032;4.376;2022-10-16T00:03:03;4.63;;;1.38;;
70052;SDS011;57398;52.032;4.376;2022-10-16T00:05:30;3.60;;;1.30;;
70052;SDS011;57398;52.032;4.376;2022-10-16T00:07:58;3.58;;;1.23;;
70052;SDS011;57398;52.032;4.376;2022-10-16T00:10:25;5.50;;;1.40;;
70052;SDS011;57398;52.032;4.376;2022-10-16T00:12:54;3.10;;;1.10;;
70052;SDS011;57398;52.032;4.376;2022-10-16T00:15:21;4.50;;;1.23;;
70052;SDS011;57398;52.032;4.376;2022-10-16T00:17:49;5.57;;;1.20;;
70052;SDS011;57398;52.032;4.376;2022-10-16T00:20:16;3.60;;;1.30;;
70052;SDS011;57398;52.032;4.376;2022-10-16T00:22:44;5.33;;;1.30;;
70052;SDS011;57398;52.032;4.376;2022-10-16T00:25:11;3.17;;;1.20;;
70052;SDS011;57398;52.032;4.376;2022-10-16T00:27:39;3.60;;;1.20;;
70052;SDS011;57398;52.032;4.376;2022-10-16T00:30:08;4.32;;;1.10;;
70052;SDS011;57398;52.032;4.376;2022-10-16T00:32:36;3.08;;;1.00;;
70052;SDS011;57398;52.032;4.376;2022-10-16T00:35:03;3.83;;;1.20;;
70052;SDS011;57398;52.032;4.376;2022-10-16T00:37:31;4.05;;;1.08;;
70052;SDS011;57398;52.032;4.376;2022-10-16T00:39:58;3.28;;;1.25;;
70052;SDS011;57398;52.032;4.376;2022-10-16T00:42:25;3.30;;;1.05;;
70052;SDS011;57398;52.032;4.376;2022-10-16T00:44:54;4.40;;;1.20;;
70052;SDS011;57398;52.032;4.376;2022-10-16T00:47:26;3.70;;;1.20;;
70052;SDS011;57398;52.032;4.376;2022-10-16T00:49:56;3.03;;;1.20;;
70052;SDS011;57398;52.032;4.376;2022-10-16T00:52:24;3.30;;;1.02;;
70052;SDS011;57398;52.032;4.376;2022-10-16T00:54:52;4.22;;;1.30;;
70052;SDS011;57398;52.032;4.376;2022-10-16T00:57:21;3.55;;;1.17;;
70052;SDS011;57398;52.032;4.376;2022-10-16T00:59:48;3.57;;;1.23;;
70052;SDS011;57398;52.032;4.376;2022-10-16T01:02:16;3.00;;;1.20;;
70052;SDS011;57398;52.032;4.376;2022-10-16T01:04:46;3.42;;;1.30;;
70052;SDS011;57398;52.032;4.376;2022-10-16T01:07:20;4.45;;;1.50;;
70052;SDS011;57398;52.032;4.376;2022-10-16T01:09:55;4.22;;;1.40;;
70052;SDS011;57398;52.032;4.376;2022-10-16T01:12:27;4.50;;;1.40;;
70052;SDS011;57398;52.032;4.376;2022-10-16T01:15:05;3.75;;;1.30;;
70052;SDS011;57398;52.032;4.376;2022-10-16T01:17:39;4.90;;;1.40;;
70052;SDS011;57398;52.032;4.376;2022-10-16T01:20:11;5.47;;;1.50;;
70052;SDS011;57398;52.032;4.376;2022-10-16T01:22:44;4.75;;;1.70;;
70052;SDS011;57398;52.032;4.376;2022-10-16T01:25:16;5.03;;;1.77;;
70052;SDS011;57398;52.032;4.376;2022-10-16T01:27:47;3.55;;;1.50;;
70052;SDS011;57398;52.032;4.376;2022-10-16T01:30:16;4.25;;;1.65;;
70052;SDS011;57398;52.032;4.376;2022-10-16T01:32:45;4.10;;;1.88;;
70052;SDS011;57398;52.032;4.376;2022-10-16T01:35:14;4.63;;;1.55;;
70052;SDS011;57398;52.032;4.376;2022-10-16T01:37:46;4.93;;;1.73;;
70052;SDS011;57398;52.032;4.376;2022-10-16T01:40:16;5.70;;;1.70;;
70052;SDS011;57398;52.032;4.376;2022-10-16T01:42:44;5.18;;;1.67;;
70052;SDS011;57398;52.032;4.376;2022-10-16T01:45:15;4.30;;;1.80;;
70052;SDS011;57398;52.032;4.376;2022-10-16T01:47:44;3.85;;;1.42;;
70052;SDS011;57398;52.032;4.376;2022-10-16T01:50:12;5.27;;;1.50;;
70052;SDS011;57398;52.032;4.376;2022-10-16T01:52:43;4.53;;;1.52;;
70052;SDS011;57398;52.032;4.376;2022-10-16T01:55:11;4.32;;;1.40;;
70052;SDS011;57398;52.032;4.376;2022-10-16T01:57:39;3.58;;;1.60;;
70052;SDS011;57398;52.032;4.376;2022-10-16T02:00:10;4.00;;;1.70;;
70052;SDS011;57398;52.032;4.376;2022-10-16T02:02:39;4.40;;;1.80;;
70052;SDS011;57398;52.032;4.376;2022-10-16T02:05:10;4.70;;;1.65;;
70052;SDS011;57398;52.032;4.376;2022-10-16T02:07:39;5.35;;;1.60;;
70052;SDS011;57398;52.032;4.376;2022-10-16T02:10:08;4.22;;;1.38;;
70052;SDS011;57398;52.032;4.376;2022-10-16T02:12:36;3.70;;;1.40;;
70052;SDS011;57398;52.032;4.376;2022-10-16T02:15:05;4.27;;;1.40;;
70052;SDS011;57398;52.032;4.376;2022-10-16T02:17:33;3.28;;;1.30;;
70052;SDS011;57398;52.032;4.376;2022-10-16T02:20:02;4.45;;;1.40;;
70052;SDS011;57398;52.032;4.376;2022-10-16T02:22:32;5.43;;;1.80;;
70052;SDS011;57398;52.032;4.376;2022-10-16T02:25:03;4.53;;;1.40;;
70052;SDS011;57398;52.032;4.376;2022-10-16T02:27:33;4.17;;;1.80;;
70052;SDS011;57398;52.032;4.376;2022-10-16T02:30:03;4.35;;;1.70;;
70052;SDS011;57398;52.032;4.376;2022-10-16T02:32:34;4.13;;;1.70;;
70052;SDS011;57398;52.032;4.376;2022-10-16T02:35:04;4.40;;;1.80;;
70052;SDS011;57398;52.032;4.376;2022-10-16T02:37:32;4.47;;;1.90;;
70052;SDS011;57398;52.032;4.376;2022-10-16T02:39:59;4.87;;;1.80;;
70052;SDS011;57398;52.032;4.376;2022-10-16T02:42:28;3.95;;;1.80;;
70052;SDS011;57398;52.032;4.376;2022-10-16T02:44:56;4.88;;;1.60;;
70052;SDS011;57398;52.032;4.376;2022-10-16T02:47:24;4.50;;;1.65;;
70052;SDS011;57398;52.032;4.376;2022-10-16T02:49:51;4.57;;;1.77;;
70052;SDS011;57398;52.032;4.376;2022-10-16T02:52:20;5.57;;;1.70;;
70052;SDS011;57398;52.032;4.376;2022-10-16T02:54:47;4.75;;;1.50;;
70052;SDS011;57398;52.032;4.376;2022-10-16T02:57:15;5.10;;;1.67;;
70052;SDS011;57398;52.032;4.376;2022-10-16T02:59:42;3.67;;;1.50;;
70052;SDS011;57398;52.032;4.376;2022-10-16T03:02:09;5.00;;;1.55;;
70052;SDS011;57398;52.032;4.376;2022-10-16T03:04:37;4.80;;;1.63;;
70052;SDS011;57398;52.032;4.376;2022-10-16T03:07:04;4.88;;;1.55;;
70052;SDS011;57398;52.032;4.376;2022-10-16T03:09:33;4.03;;;1.80;;
70052;SDS011;57398;52.032;4.376;2022-10-16T03:12:01;4.75;;;1.80;;
70052;SDS011;57398;52.032;4.376;2022-10-16T03:14:28;4.88;;;1.70;;
70052;SDS011;57398;52.032;4.376;2022-10-16T03:16:55;4.23;;;1.50;;
70052;SDS011;57398;52.032;4.376;2022-10-16T03:19:23;5.20;;;1.90;;
70052;SDS011;57398;52.032;4.376;2022-10-16T03:21:50;4.32;;;1.60;;
70052;SDS011;57398;52.032;4.376;2022-10-16T03:24:17;5.22;;;1.70;;
70052;SDS011;57398;52.032;4.376;2022-10-16T03:26:46;4.28;;;1.50;;
70052;SDS011;57398;52.032;4.376;2022-10-16T03:29:13;4.27;;;1.50;;
70052;SDS011;57398;52.032;4.376;2022-10-16T03:31:41;4.10;;;1.40;;
70052;SDS011;57398;52.032;4.376;2022-10-16T03:34:08;4.45;;;1.42;;
70052;SDS011;57398;52.032;4.376;2022-10-16T03:36:36;6.28;;;1.52;;
70052;SDS011;57398;52.032;4.376;2022-10-16T03:39:03;3.92;;;1.60;;
70052;SDS011;57398;52.032;4.376;2022-10-16T03:41:30;4.63;;;1.37;;
70052;SDS011;57398;52.032;4.376;2022-10-16T03:43:59;4.07;;;1.50;;
70052;SDS011;57398;52.032;4.376;2022-10-16T03:46:26;7.85;;;1.85;;
70052;SDS011;57398;52.032;4.376;2022-10-16T03:48:54;5.00;;;1.40;;
70052;SDS011;57398;52.032;4.376;2022-10-16T03:51:21;3.15;;;1.30;;
70052;SDS011;57398;52.032;4.376;2022-10-16T03:53:49;4.10;;;1.50;;
70052;SDS011;57398;52.032;4.376;2022-10-16T03:56:16;4.25;;;1.50;;
70052;SDS011;57398;52.032;4.376;2022-10-16T03:58:43;5.32;;;1.45;;
70052;SDS011;57398;52.032;4.376;2022-10-16T04:01:12;4.88;;;1.45;;
70052;SDS011;57398;52.032;4.376;2022-10-16T04:03:40;3.92;;;1.20;;
70052;SDS011;57398;52.032;4.376;2022-10-16T04:06:07;4.87;;;1.40;;
70052;SDS011;57398;52.032;4.376;2022-10-16T04:08:34;4.25;;;1.20;;
70052;SDS011;57398;52.032;4.376;2022-10-16T04:11:03;3.25;;;1.10;;
70052;SDS011;57398;52.032;4.376;2022-10-16T04:13:30;7.05;;;1.45;;
70052;SDS011;57398;52.032;4.376;2022-10-16T04:15:57;4.03;;;1.25;;
70052;SDS011;57398;52.032;4.376;2022-10-16T04:18:26;4.57;;;1.33;;
70052;SDS011;57398;52.032;4.376;2022-10-16T04:20:55;4.18;;;1.40;;
70052;SDS011;57398;52.032;4.376;2022-10-16T04:23:22;5.03;;;1.52;;
70052;SDS011;57398;52.032;4.376;2022-10-16T04:25:51;4.65;;;1.40;;
70052;SDS011;57398;52.032;4.376;2022-10-16T04:28:18;4.43;;;1.50;;
70052;SDS011;57398;52.032;4.376;2022-10-16T04:30:46;6.07;;;1.70;;
70052;SDS011;57398;52.032;4.376;2022-10-16T04:33:13;5.25;;;1.63;;
70052;SDS011;57398;52.032;4.376;2022-10-16T04:35:42;4.28;;;1.42;;
70052;SDS011;57398;52.032;4.376;2022-10-16T04:38:09;4.45;;;1.42;;
70052;SDS011;57398;52.032;4.376;2022-10-16T04:40:37;5.03;;;1.42;;
70052;SDS011;57398;52.032;4.376;2022-10-16T04:43:04;4.70;;;1.60;;
70052;SDS011;57398;52.032;4.376;2022-10-16T04:45:32;3.80;;;1.38;;
70052;SDS011;57398;52.032;4.376;2022-10-16T04:47:59;4.32;;;1.63;;
70052;SDS011;57398;52.032;4.376;2022-10-16T04:50:27;5.18;;;1.55;;
70052;SDS011;57398;52.032;4.376;2022-10-16T04:52:55;4.32;;;1.60;;
70052;SDS011;57398;52.032;4.376;2022-10-16T04:55:23;5.90;;;1.80;;
70052;SDS011;57398;52.032;4.376;2022-10-16T04:57:50;5.18;;;1.45;;
70052;SDS011;57398;52.032;4.376;2022-10-16T05:00:18;5.47;;;1.67;;
70052;SDS011;57398;52.032;4.376;2022-10-16T05:02:45;4.43;;;1.90;;
70052;SDS011;57398;52.032;4.376;2022-10-16T05:05:12;4.65;;;1.67;;
70052;SDS011;57398;52.032;4.376;2022-10-16T05:07:40;4.73;;;1.77;;
70052;SDS011;57398;52.032;4.376;2022-10-16T05:10:09;6.25;;;2.10;;
70052;SDS011;57398;52.032;4.376;2022-10-16T05:12:37;5.25;;;1.90;;
70052;SDS011;57398;52.032;4.376;2022-10-16T05:15:04;5.13;;;2.10;;
70052;SDS011;57398;52.032;4.376;2022-10-16T05:17:32;4.68;;;1.95;;
70052;SDS011;57398;52.032;4.376;2022-10-16T05:19:59;7.20;;;1.90;;
70052;SDS011;57398;52.032;4.376;2022-10-16T05:22:27;3.78;;;1.67;;
70052;SDS011;57398;52.032;4.376;2022-10-16T05:24:54;6.13;;;2.30;;
70052;SDS011;57398;52.032;4.376;2022-10-16T05:27:23;5.80;;;2.20;;
70052;SDS011;57398;52.032;4.376;2022-10-16T05:29:51;6.13;;;2.30;;
70052;SDS011;57398;52.032;4.376;2022-10-16T05:32:18;5.67;;;2.07;;
70052;SDS011;57398;52.032;4.376;2022-10-16T05:34:45;5.32;;;1.80;;
70052;SDS011;57398;52.032;4.376;2022-10-16T05:37:13;5.88;;;2.08;;
70052;SDS011;57398;52.032;4.376;2022-10-16T05:39:40;6.80;;;2.00;;
70052;SDS011;57398;52.032;4.376;2022-10-16T05:42:07;5.75;;;1.95;;
70052;SDS011;57398;52.032;4.376;2022-10-16T05:44:36;7.80;;;2.37;;
70052;SDS011;57398;52.032;4.376;2022-10-16T05:47:04;5.57;;;2.03;;
70052;SDS011;57398;52.032;4.376;2022-10-16T05:49:31;6.07;;;2.22;;
70052;SDS011;57398;52.032;4.376;2022-10-16T05:52:04;6.10;;;2.22;;
70052;SDS011;57398;52.032;4.376;2022-10-16T05:54:31;6.47;;;2.40;;
70052;SDS011;57398;52.032;4.376;2022-10-16T05:56:59;7.00;;;2.50;;
70052;SDS011;57398;52.032;4.376;2022-10-16T05:59:26;5.85;;;2.20;;
70052;SDS011;57398;52.032;4.376;2022-10-16T06:01:55;5.45;;;2.30;;
70052;SDS011;57398;52.032;4.376;2022-10-16T06:04:22;6.13;;;2.20;;
70052;SDS011;57398;52.032;4.376;2022-10-16T06:06:50;6.13;;;1.88;;
70052;SDS011;57398;52.032;4.376;2022-10-16T06:09:17;6.00;;;2.40;;
70052;SDS011;57398;52.032;4.376;2022-10-16T06:11:44;6.20;;;2.20;;
70052;SDS011;57398;52.032;4.376;2022-10-16T06:14:12;7.82;;;2.30;;
70052;SDS011;57398;52.032;4.376;2022-10-16T06:16:39;4.28;;;2.00;;
70052;SDS011;57398;52.032;4.376;2022-10-16T06:19:08;7.10;;;2.13;;
70052;SDS011;57398;52.032;4.376;2022-10-16T06:21:35;9.60;;;2.63;;
70052;SDS011;57398;52.032;4.376;2022-10-16T06:24:03;5.25;;;1.80;;
70052;SDS011;57398;52.032;4.376;2022-10-16T06:26:30;5.30;;;1.85;;
70052;SDS011;57398;52.032;4.376;2022-10-16T06:28:58;6.65;;;1.98;;
70052;SDS011;57398;52.032;4.376;2022-10-16T06:31:27;6.40;;;1.75;;
70052;SDS011;57398;52.032;4.376;2022-10-16T06:33:57;4.00;;;1.63;;
70052;SDS011;57398;52.032;4.376;2022-10-16T06:36:26;8.07;;;2.10;;
70052;SDS011;57398;52.032;4.376;2022-10-16T06:38:53;6.13;;;1.83;;
70052;SDS011;57398;52.032;4.376;2022-10-16T06:41:22;6.50;;;1.70;;
70052;SDS011;57398;52.032;4.376;2022-10-16T06:43:49;5.30;;;1.80;;
70052;SDS011;57398;52.032;4.376;2022-10-16T06:46:19;4.93;;;1.60;;
70052;SDS011;57398;52.032;4.376;2022-10-16T06:48:47;6.57;;;1.63;;
70052;SDS011;57398;52.032;4.376;2022-10-16T06:51:14;5.20;;;1.77;;
70052;SDS011;57398;52.032;4.376;2022-10-16T06:53:44;4.93;;;1.77;;
70052;SDS011;57398;52.032;4.376;2022-10-16T06:56:28;6.75;;;1.70;;
70052;SDS011;57398;52.032;4.376;2022-10-16T06:58:57;5.63;;;1.43;;
70052;SDS011;57398;52.032;4.376;2022-10-16T07:01:24;6.63;;;1.70;;
70052;SDS011;57398;52.032;4.376;2022-10-16T07:03:52;4.40;;;1.90;;
70052;SDS011;57398;52.032;4.376;2022-10-16T07:06:20;4.82;;;1.75;;
70052;SDS011;57398;52.032;4.376;2022-10-16T07:08:49;8.57;;;1.90;;
70052;SDS011;57398;52.032;4.376;2022-10-16T07:11:18;4.60;;;2.00;;
70052;SDS011;57398;52.032;4.376;2022-10-16T07:13:46;5.15;;;2.10;;
70052;SDS011;57398;52.032;4.376;2022-10-16T07:16:20;6.00;;;2.10;;
70052;SDS011;57398;52.032;4.376;2022-10-16T07:18:48;6.50;;;2.28;;
70052;SDS011;57398;52.032;4.376;2022-10-16T07:21:21;9.70;;;2.83;;
70052;SDS011;57398;52.032;4.376;2022-10-16T07:23:51;5.60;;;2.20;;
70052;SDS011;57398;52.032;4.376;2022-10-16T07:26:18;5.53;;;2.38;;
70052;SDS011;57398;52.032;4.376;2022-10-16T07:28:46;6.95;;;2.40;;
70052;SDS011;57398;52.032;4.376;2022-10-16T07:31:13;8.70;;;2.30;;
70052;SDS011;57398;52.032;4.376;2022-10-16T07:33:41;6.93;;;2.10;;
70052;SDS011;57398;52.032;4.376;2022-10-16T07:36:10;6.73;;;2.30;;
70052;SDS011;57398;52.032;4.376;2022-10-16T07:38:41;6.93;;;2.42;;
70052;SDS011;57398;52.032;4.376;2022-10-16T07:41:11;7.05;;;2.25;;
70052;SDS011;57398;52.032;4.376;2022-10-16T07:43:39;7.65;;;2.08;;
70052;SDS011;57398;52.032;4.376;2022-10-16T07:46:06;5.55;;;1.98;;
70052;SDS011;57398;52.032;4.376;2022-10-16T07:48:34;6.93;;;2.00;;
70052;SDS011;57398;52.032;4.376;2022-10-16T07:51:03;9.00;;;2.13;;
70052;SDS011;57398;52.032;4.376;2022-10-16T07:53:30;6.10;;;1.85;;
70052;SDS011;57398;52.032;4.376;2022-10-16T07:55:58;5.50;;;1.77;;
70052;SDS011;57398;52.032;4.376;2022-10-16T07:58:27;6.53;;;1.60;;
70052;SDS011;57398;52.032;4.376;2022-10-16T08:00:55;6.07;;;1.93;;
70052;SDS011;57398;52.032;4.376;2022-10-16T08:03:22;5.40;;;1.83;;
70052;SDS011;57398;52.032;4.376;2022-10-16T08:05:50;6.93;;;1.70;;
70052;SDS011;57398;52.032;4.376;2022-10-16T08:08:17;6.65;;;1.80;;
70052;SDS011;57398;52.032;4.376;2022-10-16T08:10:45;6.05;;;1.60;;
70052;SDS011;57398;52.032;4.376;2022-10-16T08:13:12;5.87;;;1.70;;
70052;SDS011;57398;52.032;4.376;2022-10-16T08:15:43;6.72;;;1.75;;
70052;SDS011;57398;52.032;4.376;2022-10-16T08:18:11;5.97;;;1.70;;
70052;SDS011;57398;52.032;4.376;2022-10-16T08:20:39;7.10;;;2.08;;
70052;SDS011;57398;52.032;4.376;2022-10-16T08:23:07;5.30;;;1.85;;
70052;SDS011;57398;52.032;4.376;2022-10-16T08:25:34;8.13;;;1.80;;
70052;SDS011;57398;52.032;4.376;2022-10-16T08:28:03;5.68;;;1.75;;
70052;SDS011;57398;52.032;4.376;2022-10-16T08:30:30;8.45;;;1.73;;
70052;SDS011;57398;52.032;4.376;2022-10-16T08:32:59;7.55;;;1.70;;
70052;SDS011;57398;52.032;4.376;2022-10-16T08:35:27;9.20;;;1.67;;
70052;SDS011;57398;52.032;4.376;2022-10-16T08:37:54;7.50;;;2.00;;
70052;SDS011;57398;52.032;4.376;2022-10-16T08:40:22;8.85;;;1.95;;
70052;SDS011;57398;52.032;4.376;2022-10-16T08:43:00;8.23;;;2.60;;
70052;SDS011;57398;52.032;4.376;2022-10-16T08:45:34;5.55;;;1.80;;
70052;SDS011;57398;52.032;4.376;2022-10-16T08:48:08;8.48;;;2.00;;
70052;SDS011;57398;52.032;4.376;2022-10-16T08:50:38;5.87;;;2.10;;
70052;SDS011;57398;52.032;4.376;2022-10-16T08:53:06;7.72;;;1.95;;
70052;SDS011;57398;52.032;4.376;2022-10-16T08:55:37;5.70;;;1.88;;
70052;SDS011;57398;52.032;4.376;2022-10-16T08:58:09;8.23;;;2.33;;
70052;SDS011;57398;52.032;4.376;2022-10-16T09:00:38;6.43;;;2.05;;
70052;SDS011;57398;52.032;4.376;2022-10-16T09:03:11;6.67;;;2.03;;
70052;SDS011;57398;52.032;4.376;2022-10-16T09:08:34;6.68;;;1.98;;
70052;SDS011;57398;52.032;4.376;2022-10-16T09:11:06;9.98;;;1.95;;
70052;SDS011;57398;52.032;4.376;2022-10-16T09:13:39;8.63;;;2.05;;
70052;SDS011;57398;52.032;4.376;2022-10-16T09:16:12;6.57;;;2.10;;
70052;SDS011;57398;52.032;4.376;2022-10-16T09:18:45;9.18;;;2.03;;
70052;SDS011;57398;52.032;4.376;2022-10-16T09:21:15;7.07;;;2.00;;
70052;SDS011;57398;52.032;4.376;2022-10-16T09:23:45;5.90;;;1.50;;
70052;SDS011;57398;52.032;4.376;2022-10-16T09:26:13;7.05;;;1.83;;
70052;SDS011;57398;52.032;4.376;2022-10-16T09:28:41;5.47;;;1.63;;
70052;SDS011;57398;52.032;4.376;2022-10-16T09:31:11;9.98;;;1.95;;
70052;SDS011;57398;52.032;4.376;2022-10-16T09:33:40;6.38;;;1.70;;
70052;SDS011;57398;52.032;4.376;2022-10-16T09:36:09;7.97;;;1.80;;
70052;SDS011;57398;52.032;4.376;2022-10-16T09:38:37;9.02;;;1.60;;
70052;SDS011;57398;52.032;4.376;2022-10-16T09:41:11;5.97;;;1.43;;
70052;SDS011;57398;52.032;4.376;2022-10-16T09:43:40;8.30;;;1.30;;
70052;SDS011;57398;52.032;4.376;2022-10-16T09:46:19;5.53;;;1.45;;
70052;SDS011;57398;52.032;4.376;2022-10-16T09:48:49;9.73;;;1.50;;
70052;SDS011;57398;52.032;4.376;2022-10-16T09:51:20;5.45;;;1.30;;
70052;SDS011;57398;52.032;4.376;2022-10-16T09:53:53;7.60;;;1.70;;
70052;SDS011;57398;52.032;4.376;2022-10-16T09:56:21;8.20;;;1.67;;
70052;SDS011;57398;52.032;4.376;2022-10-16T09:58:50;6.68;;;1.40;;
70052;SDS011;57398;52.032;4.376;2022-10-16T10:01:18;9.38;;;1.50;;
70052;SDS011;57398;52.032;4.376;2022-10-16T10:03:46;9.45;;;1.40;;
70052;SDS011;57398;52.032;4.376;2022-10-16T10:06:16;8.57;;;1.57;;
70052;SDS011;57398;52.032;4.376;2022-10-16T10:09:02;6.40;;;1.40;;
70052;SDS011;57398;52.032;4.376;2022-10-16T10:11:44;7.68;;;1.30;;
70052;SDS011;57398;52.032;4.376;2022-10-16T10:14:15;7.13;;;1.10;;
70052;SDS011;57398;52.032;4.376;2022-10-16T10:16:44;8.25;;;1.10;;
70052;SDS011;57398;52.032;4.376;2022-10-16T10:19:13;6.73;;;1.07;;
70052;SDS011;57398;52.032;4.376;2022-10-16T10:21:41;7.43;;;1.30;;
70052;SDS011;57398;52.032;4.376;2022-10-16T10:24:11;6.63;;;1.40;;
70052;SDS011;57398;52.032;4.376;2022-10-16T10:26:40;6.93;;;1.40;;
70052;SDS011;57398;52.032;4.376;2022-10-16T10:29:14;11.27;;;1.30;;
70052;SDS011;57398;52.032;4.376;2022-10-16T10:31:45;6.70;;;1.10;;
70052;SDS011;57398;52.032;4.376;2022-10-16T10:34:32;7.22;;;1.40;;
70052;SDS011;57398;52.032;4.376;2022-10-16T10:37:02;9.02;;;1.23;;
70052;SDS011;57398;52.032;4.376;2022-10-16T10:39:34;11.38;;;1.30;;
70052;SDS011;57398;52.032;4.376;2022-10-16T10:42:12;6.88;;;1.20;;
70052;SDS011;57398;52.032;4.376;2022-10-16T10:44:55;5.37;;;1.00;;
70052;SDS011;57398;52.032;4.376;2022-10-16T10:47:27;8.48;;;1.05;;
70052;SDS011;57398;52.032;4.376;2022-10-16T10:49:57;7.13;;;0.98;;
70052;SDS011;57398;52.032;4.376;2022-10-16T10:52:34;8.38;;;1.20;;
70052;SDS011;57398;52.032;4.376;2022-10-16T10:55:10;6.40;;;1.30;;
70052;SDS011;57398;52.032;4.376;2022-10-16T10:57:43;8.20;;;0.93;;
70052;SDS011;57398;52.032;4.376;2022-10-16T11:00:16;7.70;;;1.10;;
70052;SDS011;57398;52.032;4.376;2022-10-16T11:02:48;7.60;;;1.40;;
70052;SDS011;57398;52.032;4.376;2022-10-16T11:05:27;5.43;;;1.00;;
70052;SDS011;57398;52.032;4.376;2022-10-16T11:07:57;7.25;;;1.05;;
70052;SDS011;57398;52.032;4.376;2022-10-16T11:10:27;5.43;;;1.00;;
70052;SDS011;57398;52.032;4.376;2022-10-16T11:12:57;6.35;;;1.27;;
70052;SDS011;57398;52.032;4.376;2022-10-16T11:15:27;4.63;;;0.90;;
70052;SDS011;57398;52.032;4.376;2022-10-16T11:17:57;7.88;;;1.13;;
70052;SDS011;57398;52.032;4.376;2022-10-16T11:20:28;8.20;;;0.90;;
70052;SDS011;57398;52.032;4.376;2022-10-16T11:22:58;5.80;;;0.97;;
70052;SDS011;57398;52.032;4.376;2022-10-16T11:25:29;6.35;;;1.02;;
70052;SDS011;57398;52.032;4.376;2022-10-16T11:28:00;7.22;;;1.33;;
70052;SDS011;57398;52.032;4.376;2022-10-16T11:30:33;6.57;;;1.25;;
70052;SDS011;57398;52.032;4.376;2022-10-16T11:33:03;7.13;;;1.50;;
70052;SDS011;57398;52.032;4.376;2022-10-16T11:35:36;5.50;;;0.90;;
70052;SDS011;57398;52.032;4.376;2022-10-16T11:38:07;8.05;;;1.08;;
70052;SDS011;57398;52.032;4.376;2022-10-16T11:40:38;7.68;;;1.00;;
70052;SDS011;57398;52.032;4.376;2022-10-16T11:43:10;5.60;;;0.90;;
70052;SDS011;57398;52.032;4.376;2022-10-16T11:45:41;6.05;;;1.00;;
70052;SDS011;57398;52.032;4.376;2022-10-16T11:48:12;4.43;;;0.90;;
70052;SDS011;57398;52.032;4.376;2022-10-16T11:50:43;5.63;;;0.93;;
70052;SDS011;57398;52.032;4.376;2022-10-16T11:53:13;5.28;;;0.90;;
70052;SDS011;57398;52.032;4.376;2022-10-16T11:55:42;5.97;;;1.00;;
70052;SDS011;57398;52.032;4.376;2022-10-16T11:58:14;7.32;;;0.85;;
70052;SDS011;57398;52.032;4.376;2022-10-16T12:00:44;4.33;;;0.90;;
70052;SDS011;57398;52.032;4.376;2022-10-16T12:03:15;6.20;;;1.08;;
70052;SDS011;57398;52.032;4.376;2022-10-16T12:05:56;5.20;;;1.10;;
70052;SDS011;57398;52.032;4.376;2022-10-16T12:08:25;5.30;;;0.70;;
70052;SDS011;57398;52.032;4.376;2022-10-16T12:11:05;5.30;;;0.80;;
70052;SDS011;57398;52.032;4.376;2022-10-16T12:13:33;5.27;;;0.63;;
70052;SDS011;57398;52.032;4.376;2022-10-16T12:16:05;5.07;;;0.70;;
70052;SDS011;57398;52.032;4.376;2022-10-16T12:18:32;4.97;;;0.80;;
70052;SDS011;57398;52.032;4.376;2022-10-16T12:21:00;4.88;;;0.80;;
70052;SDS011;57398;52.032;4.376;2022-10-16T12:23:31;6.45;;;1.38;;
70052;SDS011;57398;52.032;4.376;2022-10-16T12:26:00;7.50;;;1.33;;
70052;SDS011;57398;52.032;4.376;2022-10-16T12:28:29;9.57;;;1.23;;
70052;SDS011;57398;52.032;4.376;2022-10-16T12:30:58;6.32;;;0.93;;
70052;SDS011;57398;52.032;4.376;2022-10-16T12:33:26;7.50;;;0.88;;
70052;SDS011;57398;52.032;4.376;2022-10-16T12:35:55;5.32;;;0.77;;
70052;SDS011;57398;52.032;4.376;2022-10-16T12:38:25;8.37;;;0.97;;
70052;SDS011;57398;52.032;4.376;2022-10-16T12:40:57;5.47;;;1.20;;
70052;SDS011;57398;52.032;4.376;2022-10-16T12:43:38;7.50;;;0.82;;
70052;SDS011;57398;52.032;4.376;2022-10-16T12:46:22;7.10;;;0.80;;
70052;SDS011;57398;52.032;4.376;2022-10-16T12:48:50;4.97;;;0.90;;
70052;SDS011;57398;52.032;4.376;2022-10-16T12:51:34;6.80;;;1.13;;
70052;SDS011;57398;52.032;4.376;2022-10-16T12:54:03;6.35;;;0.90;;
70052;SDS011;57398;52.032;4.376;2022-10-16T12:56:39;7.50;;;1.13;;
70052;SDS011;57398;52.032;4.376;2022-10-16T12:59:13;8.52;;;1.17;;
70052;SDS011;57398;52.032;4.376;2022-10-16T13:01:50;9.77;;;1.20;;
70052;SDS011;57398;52.032;4.376;2022-10-16T13:04:27;6.10;;;0.90;;
70052;SDS011;57398;52.032;4.376;2022-10-16T13:06:58;7.00;;;1.13;;
70052;SDS011;57398;52.032;4.376;2022-10-16T13:09:33;7.43;;;0.98;;
70052;SDS011;57398;52.032;4.376;2022-10-16T13:12:07;7.68;;;1.00;;
70052;SDS011;57398;52.032;4.376;2022-10-16T13:14:50;6.32;;;0.80;;
70052;SDS011;57398;52.032;4.376;2022-10-16T13:17:22;5.93;;;0.80;;
70052;SDS011;57398;52.032;4.376;2022-10-16T13:19:53;6.72;;;1.17;;
70052;SDS011;57398;52.032;4.376;2022-10-16T13:22:24;5.90;;;1.10;;
70052;SDS011;57398;52.032;4.376;2022-10-16T13:24:56;6.75;;;1.02;;
70052;SDS011;57398;52.032;4.376;2022-10-16T13:27:29;6.68;;;1.10;;
70052;SDS011;57398;52.032;4.376;2022-10-16T13:30:10;4.93;;;0.73;;
70052;SDS011;57398;52.032;4.376;2022-10-16T13:32:38;6.60;;;1.05;;
70052;SDS011;57398;52.032;4.376;2022-10-16T13:35:18;8.50;;;0.90;;
70052;SDS011;57398;52.032;4.376;2022-10-16T13:37:46;6.47;;;1.40;;
70052;SDS011;57398;52.032;4.376;2022-10-16T13:40:19;6.78;;;1.20;;
70052;SDS011;57398;52.032;4.376;2022-10-16T13:42:47;5.75;;;1.00;;
70052;SDS011;57398;52.032;4.376;2022-10-16T13:45:20;6.37;;;1.30;;
70052;SDS011;57398;52.032;4.376;2022-10-16T13:47:47;9.73;;;1.30;;
70052;SDS011;57398;52.032;4.376;2022-10-16T13:50:16;5.53;;;1.02;;
70052;SDS011;57398;52.032;4.376;2022-10-16T13:52:44;5.90;;;0.90;;
70052;SDS011;57398;52.032;4.376;2022-10-16T13:55:12;6.35;;;1.10;;
70052;SDS011;57398;52.032;4.376;2022-10-16T13:57:42;6.03;;;1.00;;
70052;SDS011;57398;52.032;4.376;2022-10-16T14:00:22;13.43;;;1.30;;
70052;SDS011;57398;52.032;4.376;2022-10-16T14:02:51;4.20;;;0.80;;
70052;SDS011;57398;52.032;4.376;2022-10-16T14:05:18;6.65;;;0.95;;
70052;SDS011;57398;52.032;4.376;2022-10-16T14:07:48;5.70;;;1.08;;
70052;SDS011;57398;52.032;4.376;2022-10-16T14:10:19;8.60;;;1.10;;
70052;SDS011;57398;52.032;4.376;2022-10-16T14:12:53;5.65;;;1.00;;
70052;SDS011;57398;52.032;4.376;2022-10-16T14:15:23;7.13;;;1.02;;
70052;SDS011;57398;52.032;4.376;2022-10-16T14:17:50;5.10;;;0.80;;
70052;SDS011;57398;52.032;4.376;2022-10-16T14:20:18;5.60;;;1.05;;
70052;SDS011;57398;52.032;4.376;2022-10-16T14:22:47;8.23;;;1.10;;
70052;SDS011;57398;52.032;4.376;2022-10-16T14:25:26;10.30;;;1.30;;
70052;SDS011;57398;52.032;4.376;2022-10-16T14:27:58;6.88;;;1.00;;
70052;SDS011;57398;52.032;4.376;2022-10-16T14:30:32;6.15;;;0.90;;
70052;SDS011;57398;52.032;4.376;2022-10-16T14:33:00;6.07;;;0.93;;
70052;SDS011;57398;52.032;4.376;2022-10-16T14:35:29;7.67;;;1.00;;
70052;SDS011;57398;52.032;4.376;2022-10-16T14:37:58;4.90;;;0.93;;
70052;SDS011;57398;52.032;4.376;2022-10-16T14:40:27;8.00;;;1.08;;
70052;SDS011;57398;52.032;4.376;2022-10-16T14:42:55;6.80;;;1.30;;
70052;SDS011;57398;52.032;4.376;2022-10-16T14:45:23;5.35;;;1.00;;
70052;SDS011;57398;52.032;4.376;2022-10-16T14:47:53;7.43;;;1.17;;
70052;SDS011;57398;52.032;4.376;2022-10-16T14:50:21;5.53;;;0.90;;
70052;SDS011;57398;52.032;4.376;2022-10-16T14:52:49;5.03;;;0.73;;
70052;SDS011;57398;52.032;4.376;2022-10-16T14:55:17;8.18;;;1.45;;
70052;SDS011;57398;52.032;4.376;2022-10-16T14:57:44;7.40;;;1.00;;
70052;SDS011;57398;52.032;4.376;2022-10-16T15:00:15;7.03;;;1.20;;
70052;SDS011;57398;52.032;4.376;2022-10-16T15:02:42;6.90;;;1.10;;
70052;SDS011;57398;52.032;4.376;2022-10-16T15:05:13;7.65;;;1.33;;